Paradox, NY (12858)

9:06 PM EDT on September 02, 2014 (GMT -0400)
KNYSCHRO2 | Change Station
CLOSE
Current Station
Personal Weather Station
Location: Schroon Lake, NY
Elevation: 866 ft
Nearby Weather Stations

Elev 866 ft 43.84 °N, 73.76 °W | Updated 45 seconds ago

Thunderstorm
Thunderstorm
68.0 °F
Feels Like 68.0 °F
N
0.0
Wind Variable Wind from SSW
Gusts 0.0 mph

Today
High -- | Low -- °F
--% Chance of Precip.
Yesterday
High -- | Low -- °F
Precip. -- in
6:19 AM 7:28 PM
First Quarter, 56% visible
Pressure 29.73 in
Visibility 5.0 miles
Clouds Scattered Clouds 5500 ft
Scattered Clouds 7500 ft
Overcast 9500 ft
Dew Point 68 °F
Humidity 99%
Rainfall 1.03 in
Snow Depth Not available.
UV 0 out of 12
Pollen 5.20 out of 12
Air Quality Not available.
Flu Activity Not available.
METAR K6B0 030055Z AUTO 30004KT 5SM RA SCT055 SCT075 OVC095 23/23 A2973 RMK AO2 LTG DSNT SW P0003 T02310230

More Conditions Fewer Conditions

Pressure 29.73 in
Visibility 5.0 miles
Clouds Scattered Clouds 5500 ft
Scattered Clouds 7500 ft
Overcast 9500 ft
Dew Point 68 °F
Humidity 99%
Rainfall 1.03 in
Snow Depth Not available.
UV 0 out of 12
Pollen 5.20 out of 12
Air Quality Not available.
Flu Activity Not available.
METAR K6B0 030055Z AUTO 30004KT 5SM RA SCT055 SCT075 OVC095 23/23 A2973 RMK AO2 LTG DSNT SW P0003 T02310230

More Conditions Fewer Conditions

10-Day Weather Forecast

Almanac

Astronomy

Sep. 02, 2014 Rise Set
Actual Time 6:19 AM EDT 7:28 PM EDT
Civil Twilight 5:49 AM EDT 7:58 PM EDT
Nautical Twilight 5:13 AM EDT 8:33 PM EDT
Astronomical Twilight 4:36 AM EDT 9:10 PM EDT
Moon 2:15 PM EDT (9/2) No Moon Set
Length of Visible Light 14h 08m
Length of Day
13h 09m
Tomorrow will be 2m 55s shorter.
First Quarter, 56% of the Moon is Illuminated
Today
First Quarter
Sep 8
Full
Sep 15
Last Quarter
Sep 24
New
Oct 1
First Quarter

Today's Extremes

State Highs State Lows

Community

WunderPhotos

Upload Photos

1,749,826 photos uploaded!

Nearby

Air Quality

  Air Quality AQ Index Pollutant
Tuesday Good
PM2.5
Tuesday Good
OZONE
Wednesday Good
OZONE
Wednesday Good
PM2.5

Snow Depth

Station Depth Elevation
No new snow has been reported.

Earthquake Activity

City Distance Mag. Time & Date
No recent earthquake activity has been reported nearby.
Minimum magnitude displayed is 2.5.

Coastal Water Temperatures

Place Temperature
No Stations Reporting

Nearby Weather Stations